Time;durP1;ratioP1;P1;durP2;ratioP2;P2;SDS_P1;SDS_P2;PMS_P1;PMS_P2;Temp;Humidity;BMP_temperature;BMP_pressure;BME280_temperature;BME280_humidity;BME280_pressure;Samples;Min_cycle;Max_cycle;Signal;HPM_P1;HPM_P2
2021/03/16 00:00:34;;;;;;;43.80;24.00;;;3.60;90.40;;;;;;5054816;28;20033;-67
2021/03/16 00:03:00;;;;;;;46.28;23.90;;;3.60;90.40;;;;;;5052541;28;20490;-67
2021/03/16 00:05:26;;;;;;;43.97;23.80;;;3.50;90.40;;;;;;5042101;28;20053;-66
2021/03/16 00:07:52;;;;;;;44.85;23.67;;;3.50;90.40;;;;;;5048605;28;20035;-67
2021/03/16 00:10:17;;;;;;;43.45;23.70;;;3.40;90.40;;;;;;5052696;28;20090;-67
2021/03/16 00:12:43;;;;;;;38.75;22.73;;;3.40;90.40;;;;;;5054509;28;20029;-67
2021/03/16 00:15:09;;;;;;;40.97;21.70;;;3.30;90.50;;;;;;5052839;28;20432;-71
2021/03/16 00:17:35;;;;;;;36.40;21.23;;;3.30;90.60;;;;;;5042322;28;20044;-67
2021/03/16 00:20:01;;;;;;;39.25;21.35;;;3.30;90.70;;;;;;5049471;28;20422;-67
2021/03/16 00:22:26;;;;;;;37.72;20.35;;;3.30;90.80;;;;;;5052895;28;20478;-66
2021/03/16 00:24:52;;;;;;;33.40;18.95;;;3.30;90.90;;;;;;5041954;28;20067;-71
2021/03/16 00:27:17;;;;;;;40.35;19.00;;;3.30;90.90;;;;;;5043614;28;20107;-67
2021/03/16 00:29:43;;;;;;;34.40;18.35;;;3.30;90.90;;;;;;5046763;28;20033;-67
2021/03/16 00:32:09;;;;;;;33.10;18.20;;;3.40;90.90;;;;;;5052106;28;20056;-67
2021/03/16 00:34:34;;;;;;;33.40;17.42;;;3.40;90.90;;;;;;5041770;28;20061;-67
2021/03/16 00:37:00;;;;;;;35.67;18.05;;;3.40;90.90;;;;;;5041372;28;20032;-67
2021/03/16 00:39:26;;;;;;;34.63;18.92;;;3.40;90.80;;;;;;5050011;28;20107;-68
2021/03/16 00:41:51;;;;;;;38.70;20.58;;;3.40;90.80;;;;;;5048236;28;20486;-67
2021/03/16 00:44:17;;;;;;;40.53;21.63;;;3.50;91.00;;;;;;5048046;28;20096;-67
2021/03/16 00:46:43;;;;;;;35.40;18.33;;;3.50;90.70;;;;;;5051132;28;20029;-69
2021/03/16 00:49:08;;;;;;;32.30;17.45;;;3.50;90.70;;;;;;5040559;28;20523;-67
2021/03/16 00:51:34;;;;;;;32.38;17.00;;;3.50;90.60;;;;;;5047780;28;20048;-68
2021/03/16 00:54:00;;;;;;;29.63;15.77;;;3.50;90.60;;;;;;5050350;28;20464;-67
2021/03/16 00:56:25;;;;;;;33.45;16.35;;;3.50;90.50;;;;;;5049516;28;20032;-66
2021/03/16 00:58:51;;;;;;;33.13;17.73;;;3.50;90.50;;;;;;5052410;28;20467;-73
2021/03/16 01:01:17;;;;;;;35.08;18.70;;;3.50;90.50;;;;;;5048077;28;20412;-67
2021/03/16 01:03:42;;;;;;;36.10;19.35;;;3.50;90.40;;;;;;5052598;28;20062;-67
2021/03/16 01:06:08;;;;;;;37.80;19.83;;;3.50;90.30;;;;;;5048492;28;20122;-67
2021/03/16 01:08:34;;;;;;;41.38;19.92;;;3.50;90.30;;;;;;5047095;28;20464;-67
2021/03/16 01:11:00;;;;;;;28.90;17.95;;;3.50;90.20;;;;;;5052886;28;20404;-67
2021/03/16 01:13:26;;;;;;;35.38;18.00;;;3.50;90.20;;;;;;5051349;28;20494;-67
2021/03/16 01:15:52;;;;;;;32.45;17.55;;;3.50;90.20;;;;;;5052866;28;20116;-67
2021/03/16 01:18:18;;;;;;;35.35;18.02;;;3.40;90.10;;;;;;5053003;28;20494;-67
2021/03/16 01:20:44;;;;;;;34.95;18.73;;;3.40;90.10;;;;;;5052813;28;20021;-66
2021/03/16 01:23:10;;;;;;;37.03;19.33;;;3.40;90.10;;;;;;5047070;28;20022;-67
2021/03/16 01:25:36;;;;;;;35.05;16.85;;;3.40;90.10;;;;;;5048058;28;20083;-67
2021/03/16 01:28:02;;;;;;;34.10;19.60;;;3.40;90.10;;;;;;5052726;28;20033;-66
2021/03/16 01:30:27;;;;;;;34.05;19.10;;;3.40;90.20;;;;;;5041557;28;20026;-67
2021/03/16 01:32:54;;;;;;;35.60;17.60;;;3.40;90.20;;;;;;5051633;28;20104;-67
2021/03/16 01:35:20;;;;;;;37.35;18.65;;;3.30;90.10;;;;;;5053457;28;20075;-66
2021/03/16 01:37:48;;;;;;;32.38;17.95;;;3.30;90.10;;;;;;5051438;28;20029;-67
2021/03/16 01:40:17;;;;;;;33.65;17.45;;;3.30;90.10;;;;;;5052150;28;20021;-66
2021/03/16 01:42:43;;;;;;;32.42;17.98;;;3.30;90.10;;;;;;5051682;28;20029;-66
2021/03/16 01:45:12;;;;;;;33.20;17.02;;;3.30;90.10;;;;;;5051025;28;20028;-66
2021/03/16 01:47:44;;;;;;;33.25;17.45;;;3.20;90.10;;;;;;5052804;28;20037;-67
2021/03/16 01:50:12;;;;;;;31.52;18.67;;;3.20;90.10;;;;;;5044396;28;20178;-67
2021/03/16 01:52:39;;;;;;;33.03;18.52;;;3.20;90.20;;;;;;5046306;28;20530;-67
2021/03/16 01:55:07;;;;;;;31.52;17.77;;;3.20;90.20;;;;;;5051547;28;20045;-66
2021/03/16 01:57:36;;;;;;;40.65;20.88;;;3.10;90.20;;;;;;5052663;28;20071;-68
2021/03/16 02:00:04;;;;;;;33.97;19.52;;;3.10;90.30;;;;;;5049551;28;20052;-67
2021/03/16 02:02:29;;;;;;;39.65;18.20;;;3.10;90.30;;;;;;5051124;28;20025;-67
2021/03/16 02:04:55;;;;;;;38.00;21.38;;;3.10;90.40;;;;;;5052236;28;20074;-67
2021/03/16 02:07:28;;;;;;;37.03;20.33;;;3.10;90.40;;;;;;5052262;28;20102;-67
2021/03/16 02:10:36;;;;;;;37.45;18.60;;;3.10;90.50;;;;;;5051515;28;20116;-66
2021/03/16 02:13:05;;;;;;;;;;;3.10;90.50;;;;;;5049953;28;20091;-67
2021/03/16 02:15:36;;;;;;;36.25;18.42;;;3.10;90.50;;;;;;5058661;28;19904;-67
2021/03/16 02:18:09;;;;;;;33.55;18.40;;;3.10;90.60;;;;;;5059388;28;20452;-67
2021/03/16 02:20:50;;;;;;;35.15;18.35;;;3.10;90.70;;;;;;5047936;28;20029;-67
2021/03/16 02:23:20;;;;;;;39.95;20.42;;;3.10;90.80;;;;;;5058817;28;20425;-66
2021/03/16 02:25:49;;;;;;;34.22;19.20;;;3.10;90.80;;;;;;5057226;28;20032;-66
2021/03/16 02:28:36;;;;;;;36.95;19.85;;;3.10;90.90;;;;;;5047956;28;20124;-66
2021/03/16 02:31:02;;;;;;;35.80;18.90;;;3.20;90.90;;;;;;5058378;28;20021;-67
2021/03/16 02:33:33;;;;;;;36.55;18.90;;;3.20;90.90;;;;;;5058750;28;20091;-67
2021/03/16 02:36:00;;;;;;;35.80;19.45;;;3.20;90.90;;;;;;5044540;28;20028;-67
2021/03/16 02:38:30;;;;;;;37.95;19.92;;;3.20;90.90;;;;;;5058820;28;20028;-67
2021/03/16 02:40:57;;;;;;;34.15;18.85;;;3.20;90.90;;;;;;5058220;28;20511;-67
2021/03/16 02:43:24;;;;;;;39.30;19.40;;;3.30;90.90;;;;;;5058665;28;20451;-68
2021/03/16 02:45:51;;;;;;;33.10;18.40;;;3.30;90.90;;;;;;5057727;28;20112;-67
2021/03/16 02:48:19;;;;;;;32.13;18.58;;;3.30;90.90;;;;;;5056588;28;20029;-67
2021/03/16 02:50:46;;;;;;;36.05;19.15;;;3.30;90.90;;;;;;5057500;28;20032;-67
2021/03/16 02:53:16;;;;;;;34.55;19.35;;;3.30;90.90;;;;;;5058360;28;20025;-66
2021/03/16 02:55:43;;;;;;;36.65;18.05;;;3.30;90.90;;;;;;5054872;28;20379;-67
2021/03/16 02:58:09;;;;;;;34.58;18.70;;;3.30;90.90;;;;;;5053668;28;20021;-67
2021/03/16 03:00:36;;;;;;;34.70;18.77;;;3.30;90.80;;;;;;5058748;28;20037;-67
2021/03/16 03:03:04;;;;;;;37.25;18.35;;;3.30;90.80;;;;;;5056858;28;20025;-66
2021/03/16 03:05:32;;;;;;;37.85;19.35;;;3.30;90.80;;;;;;5057975;28;20499;-67
2021/03/16 03:07:58;;;;;;;33.50;18.42;;;3.30;90.70;;;;;;5049298;28;20052;-67
2021/03/16 03:10:24;;;;;;;37.78;19.10;;;3.30;90.70;;;;;;5055419;28;20455;-67
2021/03/16 03:12:53;;;;;;;34.67;18.52;;;3.20;90.70;;;;;;5048419;28;20033;-67
2021/03/16 03:15:18;;;;;;;34.92;18.73;;;3.20;90.70;;;;;;5053733;28;20021;-67
2021/03/16 03:17:45;;;;;;;35.42;19.30;;;3.20;90.70;;;;;;5052077;28;20104;-68
2021/03/16 03:20:13;;;;;;;43.20;21.67;;;3.20;90.80;;;;;;5050963;28;20100;-66
2021/03/16 03:22:50;;;;;;;42.65;20.85;;;3.20;90.80;;;;;;5055646;28;20029;-67
2021/03/16 03:25:22;;;;;;;39.67;22.85;;;3.20;90.90;;;;;;5055588;28;20021;-68
2021/03/16 03:27:53;;;;;;;43.78;23.35;;;3.20;91.00;;;;;;5054380;28;20030;-68
2021/03/16 03:30:23;;;;;;;33.45;19.77;;;3.10;91.00;;;;;;5042072;28;20037;-67
2021/03/16 03:32:49;;;;;;;33.35;19.00;;;3.10;91.10;;;;;;5053559;28;20025;-68
2021/03/16 03:35:17;;;;;;;32.42;18.08;;;3.20;91.20;;;;;;5054998;28;20063;-67
2021/03/16 03:37:48;;;;;;;31.92;18.08;;;3.20;91.20;;;;;;5047604;28;20111;-68
2021/03/16 03:40:15;;;;;;;32.58;18.00;;;3.20;91.20;;;;;;5054560;28;20387;-73
2021/03/16 03:42:41;;;;;;;33.25;17.92;;;3.20;91.20;;;;;;5053715;28;20053;-67
2021/03/16 03:45:08;;;;;;;33.92;16.83;;;3.20;91.20;;;;;;5054438;28;20032;-68
2021/03/16 03:47:36;;;;;;;29.05;15.15;;;3.20;91.10;;;;;;5047408;28;20025;-68
2021/03/16 03:50:02;;;;;;;34.20;17.00;;;3.20;91.10;;;;;;5053374;28;20124;-67
2021/03/16 03:52:28;;;;;;;30.23;16.38;;;3.20;91.10;;;;;;5053410;28;20033;-67
2021/03/16 03:54:55;;;;;;;30.25;16.55;;;3.20;91.10;;;;;;5052585;28;20024;-68
2021/03/16 03:57:22;;;;;;;30.23;15.45;;;3.20;91.20;;;;;;5055105;28;20055;-67
2021/03/16 03:59:48;;;;;;;34.47;17.02;;;3.20;91.20;;;;;;5045781;28;20021;-68
2021/03/16 04:02:15;;;;;;;28.38;17.02;;;3.20;91.20;;;;;;5054095;28;20060;-67
2021/03/16 04:04:42;;;;;;;24.95;14.27;;;3.20;91.20;;;;;;5054113;28;20475;-68
2021/03/16 04:07:08;;;;;;;27.92;14.93;;;3.20;91.20;;;;;;5053901;28;20041;-67
2021/03/16 04:09:35;;;;;;;28.52;14.75;;;3.20;91.20;;;;;;5053338;28;20040;-68
2021/03/16 04:12:01;;;;;;;33.33;16.85;;;3.20;91.20;;;;;;5044043;28;20028;-68
2021/03/16 04:14:28;;;;;;;40.42;18.83;;;3.20;91.30;;;;;;5054382;28;20147;-67
2021/03/16 04:16:55;;;;;;;48.03;21.83;;;3.20;91.30;;;;;;5052314;28;20060;-68
2021/03/16 04:19:22;;;;;;;44.78;18.70;;;3.20;91.40;;;;;;5051562;28;20376;-68
2021/03/16 04:21:49;;;;;;;45.28;23.85;;;3.20;91.40;;;;;;5053848;28;20532;-67
2021/03/16 04:24:15;;;;;;;43.40;21.08;;;3.10;91.40;;;;;;5052748;28;20037;-67
2021/03/16 04:26:41;;;;;;;42.42;22.27;;;3.20;91.50;;;;;;5054098;28;20126;-67
2021/03/16 04:29:07;;;;;;;45.45;22.30;;;3.20;91.50;;;;;;5049958;28;20128;-67
2021/03/16 04:31:32;;;;;;;34.13;17.58;;;3.10;91.60;;;;;;5049131;28;20036;-67
2021/03/16 04:33:58;;;;;;;31.73;16.80;;;3.20;91.60;;;;;;5052453;28;20021;-68
2021/03/16 04:36:24;;;;;;;33.60;17.00;;;3.20;91.60;;;;;;5052817;28;20459;-67
2021/03/16 04:38:50;;;;;;;31.60;16.52;;;3.20;91.80;;;;;;5051991;28;20032;-68
2021/03/16 04:41:15;;;;;;;30.65;17.85;;;3.30;91.90;;;;;;5053269;28;20068;-68
2021/03/16 04:43:42;;;;;;;24.75;14.57;;;3.30;91.90;;;;;;5053177;28;20071;-68
2021/03/16 04:46:08;;;;;;;30.45;15.15;;;3.40;91.90;;;;;;5039812;28;20017;-68
2021/03/16 04:48:34;;;;;;;33.88;16.45;;;3.40;91.90;;;;;;5045423;28;20118;-68
2021/03/16 04:51:00;;;;;;;28.48;16.38;;;3.50;92.00;;;;;;5053566;28;20367;-68
2021/03/16 04:53:26;;;;;;;27.77;15.55;;;3.60;92.20;;;;;;5053602;28;20029;-68
2021/03/16 04:55:52;;;;;;;28.58;15.77;;;3.70;91.90;;;;;;5053186;28;20387;-68
2021/03/16 04:58:17;;;;;;;30.63;14.23;;;3.80;91.70;;;;;;5051702;28;20467;-68
2021/03/16 05:00:43;;;;;;;25.88;13.60;;;3.80;91.60;;;;;;5047461;28;20021;-67
2021/03/16 05:03:08;;;;;;;27.98;15.30;;;3.80;91.50;;;;;;5047801;28;20092;-67
2021/03/16 05:05:34;;;;;;;28.10;16.55;;;3.90;91.50;;;;;;5036795;28;20120;-67
2021/03/16 05:08:00;;;;;;;29.20;15.05;;;3.90;91.50;;;;;;5049444;28;20483;-67
2021/03/16 05:10:25;;;;;;;23.77;12.77;;;3.90;91.40;;;;;;5051407;28;20060;-67
2021/03/16 05:12:52;;;;;;;23.98;14.65;;;3.90;91.30;;;;;;5052770;28;20028;-74
2021/03/16 05:15:18;;;;;;;29.10;15.85;;;3.90;91.00;;;;;;5053132;28;20029;-67
2021/03/16 05:17:43;;;;;;;25.50;14.40;;;3.90;91.00;;;;;;5048189;28;20094;-68
2021/03/16 05:20:10;;;;;;;31.60;15.63;;;3.80;91.00;;;;;;5050805;28;20025;-68
2021/03/16 05:22:35;;;;;;;35.67;20.45;;;3.80;91.00;;;;;;5035293;28;20029;-68
2021/03/16 05:25:01;;;;;;;27.27;13.18;;;3.80;91.00;;;;;;5038200;28;20075;-68
2021/03/16 05:27:27;;;;;;;32.13;13.75;;;3.80;91.10;;;;;;5040091;28;20037;-68
2021/03/16 05:29:53;;;;;;;26.83;14.13;;;3.70;91.00;;;;;;5039710;28;20064;-74
2021/03/16 05:32:19;;;;;;;24.88;13.27;;;3.70;91.00;;;;;;5052248;28;20063;-68
2021/03/16 05:34:45;;;;;;;25.05;13.93;;;3.60;91.10;;;;;;5040441;28;20455;-67
2021/03/16 05:37:11;;;;;;;26.42;14.18;;;3.60;91.30;;;;;;5042129;28;20033;-67
2021/03/16 05:39:36;;;;;;;26.70;13.35;;;3.60;91.30;;;;;;5048181;28;20104;-68
2021/03/16 05:42:02;;;;;;;26.90;13.85;;;3.60;91.20;;;;;;5046312;28;20128;-68
2021/03/16 05:44:28;;;;;;;25.55;12.80;;;3.60;91.20;;;;;;5046526;28;20028;-68
2021/03/16 05:46:54;;;;;;;27.05;14.10;;;3.60;91.20;;;;;;5042310;28;20074;-67
2021/03/16 05:49:23;;;;;;;32.80;17.00;;;3.60;91.30;;;;;;5050423;28;20029;-67
2021/03/16 05:51:50;;;;;;;32.72;15.90;;;3.60;91.40;;;;;;5034764;28;20387;-67
2021/03/16 05:54:17;;;;;;;35.80;17.35;;;3.60;91.40;;;;;;5038653;28;20464;-70
2021/03/16 05:56:43;;;;;;;30.80;16.52;;;3.60;91.40;;;;;;5034776;28;20495;-68
2021/03/16 05:59:09;;;;;;;26.58;14.88;;;3.60;91.40;;;;;;5035603;28;20033;-68
2021/03/16 06:01:35;;;;;;;27.58;13.98;;;3.50;91.50;;;;;;5041854;28;20033;-67
2021/03/16 06:04:01;;;;;;;27.00;13.55;;;3.50;91.60;;;;;;5050186;28;20047;-68
2021/03/16 06:06:30;;;;;;;32.00;14.80;;;3.60;91.80;;;;;;5051771;28;20045;-68
2021/03/16 06:08:55;;;;;;;28.38;13.77;;;3.60;91.80;;;;;;5049696;28;20045;-67
2021/03/16 06:11:22;;;;;;;31.67;14.15;;;3.60;91.80;;;;;;5050981;28;20102;-67
2021/03/16 06:13:55;;;;;;;25.15;14.02;;;3.70;92.00;;;;;;5050699;28;20779;-67
2021/03/16 06:16:24;;;;;;;26.63;13.10;;;3.80;91.80;;;;;;5051709;28;20393;-68
2021/03/16 06:18:51;;;;;;;23.38;12.52;;;3.80;91.70;;;;;;5036971;28;20040;-68
2021/03/16 06:21:21;;;;;;;23.80;11.93;;;3.80;91.60;;;;;;5051774;28;20025;-68
2021/03/16 06:23:51;;;;;;;26.58;14.05;;;3.80;91.50;;;;;;5051940;28;20356;-68
2021/03/16 06:26:19;;;;;;;27.73;15.50;;;3.80;91.40;;;;;;5047624;28;20124;-68
2021/03/16 06:28:45;;;;;;;29.40;14.40;;;3.80;91.50;;;;;;5049818;28;20041;-68
2021/03/16 06:31:21;;;;;;;27.42;15.65;;;3.80;91.60;;;;;;5052093;28;20123;-68
2021/03/16 06:33:47;;;;;;;25.25;16.10;;;3.90;91.90;;;;;;5049771;28;20028;-71
2021/03/16 06:36:12;;;;;;;26.83;15.40;;;3.90;92.00;;;;;;5034651;28;20025;-68
2021/03/16 06:38:38;;;;;;;33.55;15.52;;;4.10;92.30;;;;;;5038859;28;20024;-69
2021/03/16 06:41:09;;;;;;;26.23;14.18;;;4.30;92.70;;;;;;5035137;28;20017;-69
2021/03/16 06:43:35;;;;;;;21.80;13.45;;;4.40;92.70;;;;;;5039571;28;20037;-68
2021/03/16 06:46:01;;;;;;;27.98;13.65;;;4.60;92.60;;;;;;5046210;28;20029;-69
2021/03/16 06:48:33;;;;;;;26.83;13.07;;;4.90;92.40;;;;;;5043577;28;20083;-68
2021/03/16 06:51:08;;;;;;;28.02;14.15;;;5.00;92.00;;;;;;5046434;28;20032;-68
2021/03/16 06:53:34;;;;;;;30.10;17.23;;;5.10;91.70;;;;;;5041334;28;20080;-68
2021/03/16 06:55:59;;;;;;;24.02;13.48;;;5.10;91.30;;;;;;5041582;28;20036;-69
2021/03/16 06:58:32;;;;;;;28.10;16.38;;;5.20;91.10;;;;;;5047870;28;20077;-69
2021/03/16 07:01:08;;;;;;;24.17;12.60;;;5.20;90.90;;;;;;5045917;28;20396;-68
2021/03/16 07:03:35;;;;;;;27.08;13.77;;;5.20;90.60;;;;;;5051208;28;20021;-69
2021/03/16 07:06:15;;;;;;;22.92;13.60;;;5.10;90.30;;;;;;5048487;28;20507;-69
2021/03/16 07:08:42;;;;;;;27.92;15.48;;;5.10;90.20;;;;;;5038686;28;20501;-69
2021/03/16 07:11:13;;;;;;;31.08;15.63;;;5.10;90.20;;;;;;5045880;28;20491;-69
2021/03/16 07:13:39;;;;;;;27.15;13.80;;;5.10;90.50;;;;;;5052576;28;20036;-69
2021/03/16 07:16:06;;;;;;;24.67;13.23;;;5.10;90.40;;;;;;5052891;28;20060;-69
2021/03/16 07:18:43;;;;;;;21.05;13.75;;;5.10;90.20;;;;;;5046521;28;20488;-69
2021/03/16 07:21:25;;;;;;;31.27;16.23;;;5.10;90.10;;;;;;5049570;28;20029;-70
2021/03/16 07:23:54;;;;;;;29.02;16.08;;;5.20;90.00;;;;;;5048893;28;20361;-68
2021/03/16 07:26:20;;;;;;;26.30;14.70;;;5.20;90.20;;;;;;5043831;28;20088;-69
2021/03/16 07:28:47;;;;;;;28.42;15.23;;;5.20;89.70;;;;;;5057200;28;20487;-70
2021/03/16 07:31:13;;;;;;;27.83;15.90;;;5.20;89.80;;;;;;5047413;28;20028;-69
2021/03/16 07:33:40;;;;;;;24.27;14.75;;;5.20;89.80;;;;;;5046667;28;20049;-80
2021/03/16 07:36:06;;;;;;;29.73;16.25;;;5.20;89.20;;;;;;5047316;28;20029;-77
2021/03/16 07:38:33;;;;;;;29.42;14.13;;;5.20;88.50;;;;;;5056895;28;20506;-70
2021/03/16 07:41:03;;;;;;;25.38;13.88;;;5.10;88.40;;;;;;5063526;28;20039;-70
2021/03/16 07:43:40;;;;;;;28.50;15.20;;;5.00;88.10;;;;;;5043322;28;20351;-71
2021/03/16 07:46:14;;;;;;;23.38;12.55;;;4.90;88.40;;;;;;5052620;28;20067;-70
2021/03/16 07:48:45;;;;;;;28.48;12.98;;;4.90;89.10;;;;;;5044004;28;20034;-70
2021/03/16 07:51:21;;;;;;;25.35;12.40;;;4.90;88.90;;;;;;5042266;28;20060;-70
2021/03/16 07:53:57;;;;;;;25.05;13.43;;;4.90;89.00;;;;;;5048870;28;20105;-69
2021/03/16 07:56:25;;;;;;;;;;;5.00;89.40;;;;;;5040541;28;20025;-69
2021/03/16 07:58:50;;;;;;;22.77;12.30;;;5.00;88.90;;;;;;5046674;28;19962;-70
2021/03/16 08:01:16;;;;;;;27.27;10.32;;;4.90;88.90;;;;;;5051929;28;20108;-69
2021/03/16 08:03:42;;;;;;;24.38;11.88;;;5.00;89.00;;;;;;5054981;28;20013;-69
2021/03/16 08:06:20;;;;;;;22.75;11.48;;;5.00;89.00;;;;;;5048242;28;20194;-70
2021/03/16 08:08:46;;;;;;;21.30;12.07;;;5.10;89.30;;;;;;5050476;28;20045;-70
2021/03/16 08:11:12;;;;;;;24.02;12.40;;;5.20;89.10;;;;;;5050073;28;20036;-70
2021/03/16 08:13:41;;;;;;;30.55;11.63;;;5.30;90.00;;;;;;5058296;28;20028;-70
2021/03/16 08:16:11;;;;;;;19.08;10.95;;;5.60;90.10;;;;;;5060883;28;20048;-70
2021/03/16 08:18:37;;;;;;;21.10;11.70;;;5.90;89.20;;;;;;5050405;28;20379;-70
2021/03/16 08:21:10;;;;;;;19.98;11.55;;;6.20;88.40;;;;;;5036865;28;20022;-71
2021/03/16 08:23:37;;;;;;;24.25;12.45;;;6.30;87.20;;;;;;5039459;28;20036;-71
2021/03/16 08:26:05;;;;;;;20.50;12.13;;;6.60;86.40;;;;;;5040751;28;20432;-70
2021/03/16 08:28:31;;;;;;;39.42;18.58;;;6.80;86.80;;;;;;5038298;28;20041;-71
2021/03/16 08:30:58;;;;;;;29.13;14.75;;;7.30;86.30;;;;;;5038630;28;20460;-71
2021/03/16 08:33:25;;;;;;;26.70;14.68;;;7.80;87.30;;;;;;5033428;28;20061;-71
2021/03/16 08:35:53;;;;;;;24.52;12.90;;;8.40;84.50;;;;;;5050228;28;20025;-71
2021/03/16 08:38:23;;;;;;;27.60;13.90;;;9.00;82.80;;;;;;5043693;28;20075;-71
2021/03/16 08:41:01;;;;;;;28.73;14.80;;;9.10;77.80;;;;;;5048460;28;20020;-70
2021/03/16 08:43:27;;;;;;;38.65;15.57;;;9.10;76.20;;;;;;5048072;28;20021;-71
2021/03/16 08:45:53;;;;;;;29.10;14.02;;;9.10;76.20;;;;;;5045747;28;20017;-72
2021/03/16 08:48:32;;;;;;;30.30;13.38;;;9.20;76.30;;;;;;5043797;28;20036;-71
2021/03/16 08:50:58;;;;;;;21.90;10.43;;;9.40;76.90;;;;;;5037309;28;20017;-71
2021/03/16 08:53:25;;;;;;;18.08;9.77;;;9.70;74.90;;;;;;5046350;28;20056;-71
2021/03/16 08:55:52;;;;;;;30.00;11.60;;;9.90;72.80;;;;;;5046135;28;20380;-72
2021/03/16 08:58:20;;;;;;;21.10;9.60;;;10.00;72.10;;;;;;5048333;28;20112;-70
2021/03/16 09:00:46;;;;;;;21.48;10.65;;;10.40;72.20;;;;;;5045028;28;20025;-74
2021/03/16 09:03:12;;;;;;;18.50;9.38;;;10.50;70.30;;;;;;5043920;28;20387;-69
2021/03/16 09:05:39;;;;;;;24.27;11.80;;;10.60;69.60;;;;;;5036048;28;20095;-71
2021/03/16 09:08:05;;;;;;;23.95;13.35;;;10.50;69.40;;;;;;5046457;28;20028;-70
2021/03/16 09:10:31;;;;;;;21.42;11.27;;;10.60;69.70;;;;;;5050721;28;20116;-71
2021/03/16 09:13:01;;;;;;;25.45;12.23;;;11.00;69.40;;;;;;5043154;28;20018;-72
2021/03/16 09:15:32;;;;;;;23.48;10.85;;;11.30;68.50;;;;;;5047812;28;20028;-71
2021/03/16 09:18:00;;;;;;;20.83;10.88;;;11.50;67.50;;;;;;5040263;28;20056;-72
2021/03/16 09:20:30;;;;;;;22.40;10.75;;;11.70;66.40;;;;;;5045242;28;20052;-71
2021/03/16 09:23:01;;;;;;;19.58;10.63;;;11.90;65.30;;;;;;5040798;28;20052;-71
2021/03/16 09:25:29;;;;;;;26.35;11.55;;;12.00;64.30;;;;;;5038090;28;20108;-71
2021/03/16 09:28:05;;;;;;;20.85;12.18;;;12.10;64.60;;;;;;5034666;28;20037;-71
2021/03/16 09:30:49;;;;;;;23.40;12.07;;;12.10;63.70;;;;;;5053169;28;20040;-71
2021/03/16 09:33:18;;;;;;;26.05;12.30;;;12.20;64.20;;;;;;5034451;28;20133;-71
2021/03/16 09:35:44;;;;;;;18.45;10.15;;;12.10;62.20;;;;;;5050239;28;20463;-71
2021/03/16 09:38:10;;;;;;;27.55;10.90;;;11.70;61.80;;;;;;5035693;28;20450;-70
2021/03/16 09:40:39;;;;;;;23.58;12.55;;;11.10;61.80;;;;;;5042086;28;20105;-71
2021/03/16 09:43:26;;;;;;;26.38;14.52;;;10.30;62.60;;;;;;5034501;28;20435;-71
2021/03/16 09:46:01;;;;;;;35.28;16.90;;;9.60;63.90;;;;;;5042143;28;20371;-70
2021/03/16 09:48:27;;;;;;;27.85;14.82;;;8.90;65.60;;;;;;5037573;28;20038;-70
2021/03/16 09:50:54;;;;;;;30.35;16.20;;;8.60;67.60;;;;;;5043442;28;20032;-70
2021/03/16 09:53:20;;;;;;;32.38;15.45;;;8.40;68.50;;;;;;5042931;28;20163;-69
2021/03/16 09:55:59;;;;;;;29.50;14.20;;;8.20;69.00;;;;;;5035491;28;20037;-71
2021/03/16 09:58:26;;;;;;;29.17;14.15;;;8.10;70.90;;;;;;5046701;28;20550;-69
2021/03/16 10:00:53;;;;;;;31.00;15.60;;;8.40;72.10;;;;;;5046000;28;20391;-73
2021/03/16 10:03:20;;;;;;;27.33;13.30;;;8.70;71.50;;;;;;5038501;28;20036;-69
2021/03/16 10:05:47;;;;;;;28.42;15.07;;;8.90;71.50;;;;;;5035969;28;20053;-70
2021/03/16 10:08:27;;;;;;;31.33;16.38;;;9.10;70.60;;;;;;5044955;28;20040;-70
2021/03/16 10:10:56;;;;;;;30.08;15.63;;;9.20;70.50;;;;;;5041775;28;20120;-70
2021/03/16 10:13:34;;;;;;;36.55;16.17;;;9.50;69.60;;;;;;5035313;28;20037;-68
2021/03/16 10:16:11;;;;;;;38.97;17.05;;;9.50;68.40;;;;;;5047253;28;20025;-68
2021/03/16 10:18:44;;;;;;;37.70;19.23;;;9.30;67.50;;;;;;5038015;28;20162;-69
2021/03/16 10:21:10;;;;;;;36.95;19.92;;;8.80;67.90;;;;;;5062965;28;20022;-69
2021/03/16 10:23:36;;;;;;;47.00;22.05;;;8.50;68.60;;;;;;5034175;28;20108;-69
2021/03/16 10:26:05;;;;;;;45.33;22.75;;;8.30;69.70;;;;;;5046406;28;20470;-69
2021/03/16 10:28:39;;;;;;;38.17;20.13;;;8.20;70.60;;;;;;5042126;28;20531;-70
2021/03/16 10:31:19;;;;;;;50.38;21.08;;;8.10;71.20;;;;;;5045455;28;20035;-69
2021/03/16 10:33:47;;;;;;;37.20;20.30;;;8.10;72.80;;;;;;5051498;28;20120;-69
2021/03/16 10:36:13;;;;;;;46.40;20.27;;;8.20;72.30;;;;;;5044618;28;20108;-69
2021/03/16 10:38:39;;;;;;;43.22;19.83;;;8.30;72.40;;;;;;5040405;28;20060;-69
2021/03/16 10:41:05;;;;;;;40.33;22.02;;;8.50;72.90;;;;;;5039833;28;20028;-70
2021/03/16 10:43:30;;;;;;;44.17;22.00;;;8.50;72.20;;;;;;5041780;28;20033;-69
2021/03/16 10:45:57;;;;;;;44.95;21.38;;;8.50;71.90;;;;;;5038053;28;20056;-70
2021/03/16 10:48:23;;;;;;;49.35;20.85;;;8.40;72.10;;;;;;5043279;28;20078;-69
2021/03/16 10:50:49;;;;;;;50.40;22.40;;;8.30;72.30;;;;;;5044440;28;20036;-70
2021/03/16 10:53:16;;;;;;;45.50;20.75;;;8.30;72.80;;;;;;5035998;28;20064;-70
2021/03/16 10:55:42;;;;;;;48.03;20.40;;;8.40;73.30;;;;;;5036993;28;20032;-71
2021/03/16 10:58:08;;;;;;;43.90;19.65;;;8.50;73.80;;;;;;5039839;28;20029;-69
2021/03/16 11:00:35;;;;;;;46.63;21.70;;;8.90;74.00;;;;;;5039607;28;20025;-70
2021/03/16 11:03:00;;;;;;;40.75;18.58;;;9.40;74.50;;;;;;5043522;28;20029;-70
2021/03/16 11:05:26;;;;;;;39.33;20.33;;;10.10;73.50;;;;;;5046686;28;20053;-70
2021/03/16 11:07:52;;;;;;;36.67;19.02;;;10.70;71.50;;;;;;5051435;28;20025;-67
2021/03/16 11:10:18;;;;;;;41.53;19.55;;;11.00;69.20;;;;;;5046677;28;20521;-69
2021/03/16 11:12:44;;;;;;;36.67;20.70;;;11.20;68.50;;;;;;5050053;28;20029;-70
2021/03/16 11:15:10;;;;;;;45.70;19.65;;;11.30;67.40;;;;;;5043349;28;20022;-67
2021/03/16 11:17:36;;;;;;;43.55;21.33;;;11.40;66.20;;;;;;5044716;28;20437;-67
2021/03/16 11:20:03;;;;;;;50.97;23.55;;;11.40;65.90;;;;;;5034517;28;20034;-67
2021/03/16 11:22:29;;;;;;;44.92;21.30;;;11.40;65.80;;;;;;5047082;28;20024;-70
2021/03/16 11:24:55;;;;;;;45.42;21.58;;;11.30;65.10;;;;;;5049462;28;20030;-67
2021/03/16 11:27:20;;;;;;;42.72;20.58;;;11.20;65.60;;;;;;5053847;28;20364;-69
2021/03/16 11:29:46;;;;;;;47.15;21.05;;;11.30;65.90;;;;;;5044593;28;20025;-69
2021/03/16 11:32:12;;;;;;;44.33;21.23;;;11.40;66.10;;;;;;5043409;28;20045;-70
2021/03/16 11:34:38;;;;;;;43.95;21.27;;;11.50;65.40;;;;;;5041666;28;20483;-70
2021/03/16 11:37:04;;;;;;;42.15;19.77;;;11.60;66.10;;;;;;5040144;28;20098;-69
2021/03/16 11:39:29;;;;;;;39.28;18.67;;;11.80;65.60;;;;;;5057088;28;20032;-69
2021/03/16 11:41:55;;;;;;;37.28;18.27;;;11.80;64.70;;;;;;5059754;28;20017;-69
2021/03/16 11:44:21;;;;;;;35.05;20.80;;;11.80;64.20;;;;;;5060368;28;20029;-69
2021/03/16 11:46:46;;;;;;;41.67;19.95;;;11.50;63.40;;;;;;5046772;28;20017;-69
2021/03/16 11:49:12;;;;;;;32.60;17.80;;;11.30;64.10;;;;;;5038366;28;20041;-70
2021/03/16 11:51:38;;;;;;;37.97;18.73;;;11.40;64.80;;;;;;5043587;28;20391;-70
2021/03/16 11:54:04;;;;;;;34.42;17.42;;;11.40;64.60;;;;;;5040230;28;20097;-68
2021/03/16 11:56:29;;;;;;;39.03;17.58;;;11.50;64.40;;;;;;5048736;28;20025;-69
2021/03/16 11:58:55;;;;;;;39.15;19.70;;;11.50;64.40;;;;;;5043119;28;20052;-71
2021/03/16 12:01:21;;;;;;;55.08;20.85;;;11.60;63.70;;;;;;5042124;28;20081;-71
2021/03/16 12:03:47;;;;;;;37.80;18.15;;;11.60;64.00;;;;;;5035969;28;20018;-71
2021/03/16 12:06:12;;;;;;;42.47;18.48;;;11.70;64.60;;;;;;5039935;28;20041;-71
2021/03/16 12:08:38;;;;;;;39.45;17.88;;;11.80;64.20;;;;;;5039614;28;20120;-72
2021/03/16 12:11:05;;;;;;;34.28;18.45;;;11.90;63.90;;;;;;5043629;28;20064;-72
2021/03/16 12:13:32;;;;;;;40.03;18.38;;;11.70;63.00;;;;;;5044598;28;20036;-71
2021/03/16 12:15:58;;;;;;;40.78;19.20;;;11.50;62.90;;;;;;5044552;28;20029;-70
2021/03/16 12:18:23;;;;;;;40.72;18.05;;;11.30;63.50;;;;;;5040964;28;20036;-70
2021/03/16 12:20:50;;;;;;;40.97;21.30;;;11.10;63.90;;;;;;5044995;28;20031;-71
2021/03/16 12:23:16;;;;;;;47.88;21.65;;;10.90;64.70;;;;;;5043066;28;20061;-70
2021/03/16 12:25:43;;;;;;;42.92;20.25;;;10.90;65.00;;;;;;5044334;28;20025;-71
2021/03/16 12:28:08;;;;;;;47.13;23.25;;;10.80;65.10;;;;;;5041200;28;20112;-71
2021/03/16 12:30:35;;;;;;;43.35;21.20;;;10.60;65.40;;;;;;5046081;28;20119;-67
2021/03/16 12:33:02;;;;;;;44.03;21.58;;;10.40;65.90;;;;;;5059322;28;20021;-68
2021/03/16 12:35:28;;;;;;;47.83;21.83;;;10.30;66.10;;;;;;5043826;28;20079;-67
2021/03/16 12:37:54;;;;;;;40.20;20.25;;;10.10;66.50;;;;;;5056311;28;20035;-68